This is the latest recevied weather packets stored in our database for station/object OH6HPS. If no packets are shown the sender has not sent any weather packets the latest 10 day(s).
| Time | Temp. | Humidity | Pressure | Rain* | Wind** | Luminosity | Snow |
|---|---|---|---|---|---|---|---|
| 1788029642 | 19.44° C | 71% | 1007.7 hPa | 0 mm | - | 0 W/m² | - |
| 1788028443 | 19.44° C | 72% | 1008.1 hPa | 0 mm | - | 0 W/m² | - |
| 1788027843 | 18.89° C | 72% | 1008.3 hPa | 0 mm | - | 0 W/m² | - |
| 1788026642 | 18.89° C | 72% | 1008.5 hPa | 0 mm | - | 0 W/m² | - |
| 1788024243 | 18.89° C | 73% | 1008.9 hPa | 0 mm | - | 0 W/m² | - |
| 1788023644 | 18.89° C | 72% | 1009 hPa | 0 mm | - | 7 W/m² | - |
| 1788023042 | 18.89° C | 72% | 1009.1 hPa | 0 mm | - | 14 W/m² | - |
| 1788022443 | 18.89° C | 72% | 1009.2 hPa | 0 mm | - | 18 W/m² | - |
| 1788021243 | 19.44° C | 72% | 1009.4 hPa | 0 mm | - | 25 W/m² | - |
| 1788020643 | 19.44° C | 73% | 1009.4 hPa | 0 mm | - | 27 W/m² | - |
| 1788020042 | 19.44° C | 72% | 1009.5 hPa | 0 mm | - | 34 W/m² | - |
| 1788018843 | 19.44° C | 72% | 1009.6 hPa | 0 mm | - | 42 W/m² | - |
| 1788017642 | 19.44° C | 71% | 1009.7 hPa | 0 mm | - | 55 W/m² | - |
| 1788017043 | 19.44° C | 71% | 1009.8 hPa | 0 mm | - | 62 W/m² | - |
| 1788016442 | 19.44° C | 71% | 1009.9 hPa | 0 mm | - | 62 W/m² | - |
| 1788015843 | 19.44° C | 71% | 1010.1 hPa | 0 mm | - | 49 W/m² | - |
| 1788015243 | 19.44° C | 72% | 1010.1 hPa | 0 mm | - | 60 W/m² | - |
| 1788014043 | 18.89° C | 73% | 1010.4 hPa | 0 mm | - | 81 W/m² | - |
| 1788013442 | 18.89° C | 74% | 1010.4 hPa | 0 mm | - | 60 W/m² | - |
| 1788011041 | 18.33° C | 77% | 1010.5 hPa | 0 mm | - | 79 W/m² | - |
| 1788010442 | 18.33° C | 76% | 1010.6 hPa | 0 mm | - | 70 W/m² | - |
| 1788009241 | 18.89° C | 74% | 1011 hPa | 0 mm | - | 63 W/m² | - |
| 1788008042 | 20° C | 68% | 1011 hPa | 0 mm | - | 76 W/m² | - |
| 1788007440 | 20° C | 68% | 1011 hPa | 0 mm | - | 162 W/m² | - |
| 1788006839 | 20° C | 68% | 1011.1 hPa | 0 mm | - | 153 W/m² | - |
* Rain latest hour (hover to see other rain measurements)
** Current wind speed in m/s (hover to see current wind gust speed)